createdAt,value
2018-05-04T00:09:34.550Z,73.50
2018-05-04T00:12:00.694Z,73.40
2018-05-04T00:14:26.716Z,73.70
2018-05-04T00:16:52.742Z,73.90
2018-05-04T00:19:18.740Z,73.80
2018-05-04T00:21:44.785Z,74.60
2018-05-04T00:24:10.812Z,73.60
2018-05-04T00:26:36.939Z,73.60
2018-05-04T00:29:03.055Z,73.50
2018-05-04T00:31:29.053Z,74.00
2018-05-04T00:33:55.056Z,74.10
2018-05-04T00:36:21.033Z,73.80
2018-05-04T00:38:47.064Z,73.80
2018-05-04T00:41:13.330Z,73.70
2018-05-04T00:43:39.340Z,73.80
2018-05-04T00:46:05.316Z,74.20
2018-05-04T00:48:31.343Z,73.80
2018-05-04T00:50:57.337Z,73.90
2018-05-04T00:53:23.267Z,73.80
2018-05-04T00:55:49.285Z,73.90
2018-05-04T00:58:15.212Z,74.50
2018-05-04T01:00:41.318Z,74.30
2018-05-04T01:03:07.310Z,74.70
2018-05-04T01:05:33.323Z,75.00
2018-05-04T01:07:59.297Z,75.70
2018-05-04T01:10:25.256Z,76.20
2018-05-04T01:12:51.788Z,76.60
2018-05-04T01:15:17.752Z,76.60
2018-05-04T01:17:43.757Z,76.50
2018-05-04T01:20:09.709Z,76.60
2018-05-04T01:22:35.640Z,76.60
2018-05-04T01:25:01.629Z,76.70
2018-05-04T01:27:27.616Z,77.10
2018-05-04T01:29:53.615Z,77.10
2018-05-04T01:32:19.780Z,76.90
2018-05-04T01:34:45.752Z,77.00
2018-05-04T01:37:11.981Z,76.60
2018-05-04T01:39:37.936Z,76.50
2018-05-04T01:42:03.917Z,76.60
2018-05-04T01:44:29.927Z,75.90
2018-05-04T01:46:55.933Z,75.50
2018-05-04T01:49:21.897Z,75.60
2018-05-04T01:51:47.880Z,75.20
2018-05-04T01:54:13.877Z,75.60
2018-05-04T01:56:39.868Z,75.80
2018-05-04T01:59:05.857Z,75.90
2018-05-04T02:01:31.824Z,75.70
2018-05-04T02:03:57.870Z,75.50
2018-05-04T02:06:23.868Z,75.00
2018-05-04T02:08:49.878Z,75.40
2018-05-04T02:11:16.064Z,75.00
2018-05-04T02:13:42.089Z,75.10
2018-05-04T02:16:08.047Z,75.30
2018-05-04T02:18:34.051Z,75.00
2018-05-04T02:21:00.034Z,74.70
2018-05-04T02:23:26.031Z,74.50
2018-05-04T02:25:52.049Z,75.40
2018-05-04T02:28:18.152Z,74.40
2018-05-04T02:30:44.125Z,74.10
2018-05-04T02:33:10.117Z,74.00
2018-05-04T02:35:36.212Z,74.00
2018-05-04T02:38:02.201Z,74.10
2018-05-04T02:40:28.133Z,74.40
2018-05-04T02:42:54.113Z,74.60
2018-05-04T02:45:20.052Z,74.10
2018-05-04T02:47:46.056Z,74.10
2018-05-04T02:50:12.001Z,74.40
2018-05-04T02:52:37.993Z,74.30
2018-05-04T02:55:04.021Z,74.60
2018-05-04T02:57:30.020Z,75.00
2018-05-04T02:59:55.995Z,75.10
2018-05-04T03:02:21.981Z,75.20
2018-05-04T03:04:47.985Z,75.20
2018-05-04T03:07:14.000Z,75.30
2018-05-04T03:09:39.989Z,75.40
2018-05-04T03:12:05.979Z,76.10
2018-05-04T03:14:31.957Z,76.00
2018-05-04T03:16:57.901Z,75.80
2018-05-04T03:19:23.899Z,75.70
2018-05-04T03:21:49.868Z,75.90
2018-05-04T03:24:15.931Z,75.90
2018-05-04T03:26:41.893Z,75.80
2018-05-04T03:29:07.853Z,76.10
2018-05-04T03:31:33.884Z,76.40
2018-05-04T03:33:59.833Z,77.00
2018-05-04T03:36:25.846Z,77.00
2018-05-04T03:38:51.797Z,77.40
2018-05-04T03:41:18.062Z,77.70
2018-05-04T03:43:44.194Z,77.60
2018-05-04T03:46:10.948Z,77.70
2018-05-04T03:48:36.958Z,77.50
2018-05-04T03:51:02.982Z,77.60
2018-05-04T03:53:28.974Z,77.60
2018-05-04T03:55:55.084Z,77.40
2018-05-04T03:58:33.302Z,77.50
2018-05-04T04:01:11.487Z,77.10
2018-05-04T04:03:49.606Z,77.40
2018-05-04T04:06:15.609Z,77.60
2018-05-04T04:08:41.588Z,77.00
2018-05-04T04:11:07.673Z,77.30
2018-05-04T04:13:33.716Z,77.60
2018-05-04T04:15:59.717Z,77.90
2018-05-04T04:18:25.680Z,77.30
2018-05-04T04:20:51.646Z,77.30
2018-05-04T04:23:17.624Z,77.30
2018-05-04T04:25:43.608Z,77.70
2018-05-04T04:28:09.640Z,77.90
2018-05-04T04:30:35.634Z,78.80
2018-05-04T04:33:01.628Z,79.00
2018-05-04T04:35:27.579Z,79.00
2018-05-04T04:37:53.528Z,79.80
2018-05-04T04:40:19.503Z,80.00
2018-05-04T04:42:46.312Z,79.90
2018-05-04T04:45:12.316Z,79.80
2018-05-04T04:47:38.362Z,80.00
2018-05-04T04:50:04.347Z,79.70
2018-05-04T04:52:30.280Z,79.20
2018-05-04T04:54:56.243Z,78.50
2018-05-04T04:57:22.225Z,78.10
2018-05-04T04:59:48.382Z,78.00
2018-05-04T05:02:14.505Z,78.10
2018-05-04T05:04:40.502Z,78.30
2018-05-04T05:07:06.501Z,77.80
2018-05-04T05:09:32.578Z,79.80
2018-05-04T05:11:58.548Z,77.80
2018-05-04T05:14:24.832Z,78.00
2018-05-04T05:16:50.875Z,78.30
2018-05-04T05:19:16.823Z,78.00
2018-05-04T05:21:42.831Z,78.10
2018-05-04T05:24:08.796Z,78.60
2018-05-04T05:26:34.785Z,78.50
2018-05-04T05:29:01.064Z,78.80
2018-05-04T05:31:43.077Z,78.90
2018-05-04T05:34:09.090Z,78.70
2018-05-04T05:36:35.198Z,79.00
2018-05-04T05:39:02.260Z,78.80
2018-05-04T05:41:28.452Z,78.70
2018-05-04T05:43:56.878Z,79.20
2018-05-04T05:46:30.894Z,79.30
2018-05-04T05:49:04.835Z,78.70
2018-05-04T05:51:30.860Z,78.30
2018-05-04T05:53:56.840Z,78.50
2018-05-04T05:56:22.862Z,78.50
2018-05-04T05:58:48.855Z,79.00
2018-05-04T06:01:14.871Z,79.20
2018-05-04T06:03:40.903Z,79.30
2018-05-04T06:06:07.007Z,79.70
2018-05-04T06:08:33.021Z,79.60
2018-05-04T06:10:59.060Z,80.30
2018-05-04T06:13:25.125Z,80.20
2018-05-04T06:15:51.110Z,79.60
2018-05-04T06:18:17.150Z,79.60
2018-05-04T06:20:43.217Z,79.50
2018-05-04T06:23:09.217Z,79.60
2018-05-04T06:25:35.297Z,80.00
2018-05-04T06:28:01.375Z,80.30
2018-05-04T06:30:27.496Z,79.90
2018-05-04T06:32:53.619Z,79.70
2018-05-04T06:35:19.637Z,79.00
2018-05-04T06:37:45.672Z,79.00
2018-05-04T06:40:12.005Z,79.40
2018-05-04T06:42:38.835Z,77.50
2018-05-04T06:45:04.955Z,77.10
2018-05-04T06:47:30.912Z,76.80
2018-05-04T06:49:57.224Z,77.60
2018-05-04T06:52:23.197Z,78.50
2018-05-04T06:54:50.113Z,79.30
2018-05-04T06:57:16.268Z,79.80
2018-05-04T06:59:42.368Z,79.80
2018-05-04T07:02:08.392Z,79.40
2018-05-04T07:04:34.448Z,79.30
2018-05-04T07:07:00.547Z,79.20
2018-05-04T07:09:26.631Z,79.10
2018-05-04T07:11:52.573Z,78.20
2018-05-04T07:14:18.601Z,77.70
2018-05-04T07:16:44.618Z,78.60
2018-05-04T07:19:10.693Z,79.00
2018-05-04T07:21:36.917Z,79.00
2018-05-04T07:24:03.132Z,79.30
2018-05-04T07:26:29.176Z,79.20
2018-05-04T07:28:55.539Z,79.70
2018-05-04T07:31:21.692Z,79.40
2018-05-04T07:33:47.721Z,79.60
2018-05-04T07:36:13.689Z,77.60
2018-05-04T07:38:39.681Z,77.00
2018-05-04T07:41:05.767Z,76.80
2018-05-04T07:43:31.749Z,76.60
2018-05-04T07:45:57.710Z,76.70
2018-05-04T07:48:23.682Z,77.10
2018-05-04T07:50:49.842Z,78.30
2018-05-04T07:53:15.913Z,77.70
2018-05-04T07:55:41.944Z,76.20
2018-05-04T07:58:07.982Z,77.30
2018-05-04T08:00:33.976Z,78.20
2018-05-04T08:03:00.119Z,78.80
2018-05-04T08:05:26.181Z,79.10
2018-05-04T08:07:52.237Z,79.00
2018-05-04T08:10:18.428Z,79.20
2018-05-04T08:12:44.511Z,79.00
2018-05-04T08:15:11.507Z,78.90
2018-05-04T08:17:37.540Z,78.80
2018-05-04T08:20:03.590Z,78.40
2018-05-04T08:22:29.678Z,78.40
2018-05-04T08:24:55.704Z,76.80
2018-05-04T08:27:21.714Z,76.20
2018-05-04T08:29:47.635Z,75.70
2018-05-04T08:32:13.624Z,75.40
2018-05-04T08:34:39.749Z,75.40
2018-05-04T08:37:05.745Z,74.40
2018-05-04T08:39:31.745Z,73.80
2018-05-04T08:41:57.819Z,74.70
2018-05-04T08:44:23.766Z,74.40
2018-05-04T08:46:49.806Z,73.90
2018-05-04T08:49:16.531Z,72.60
2018-05-04T08:51:42.559Z,72.10
2018-05-04T08:54:08.531Z,71.40
2018-05-04T08:56:34.549Z,72.70
2018-05-04T08:59:00.544Z,72.20
2018-05-04T09:01:26.544Z,71.70
2018-05-04T09:03:52.577Z,71.20
2018-05-04T09:06:18.521Z,70.60
2018-05-04T09:08:44.541Z,70.90
2018-05-04T09:11:10.562Z,70.40
2018-05-04T09:13:36.678Z,70.30
2018-05-04T09:16:02.764Z,70.80
2018-05-04T09:18:28.802Z,70.50
2018-05-04T09:20:54.841Z,70.40
2018-05-04T09:23:21.719Z,70.30
2018-05-04T09:25:47.756Z,69.60
2018-05-04T09:28:15.745Z,69.10
2018-05-04T09:30:41.718Z,69.00
2018-05-04T09:33:07.901Z,69.80
2018-05-04T09:35:34.943Z,70.60
2018-05-04T09:38:00.946Z,69.90
2018-05-04T09:40:26.934Z,69.80
2018-05-04T09:42:52.971Z,69.40
2018-05-04T09:45:19.030Z,69.60
2018-05-04T09:47:45.069Z,68.90
2018-05-04T09:50:11.146Z,69.00
2018-05-04T09:52:37.181Z,69.20
2018-05-04T09:55:03.360Z,69.30
2018-05-04T09:57:29.477Z,69.50
2018-05-04T09:59:55.556Z,69.80
2018-05-04T10:02:21.601Z,69.30
2018-05-04T10:04:47.699Z,70.20
2018-05-04T10:07:13.793Z,69.50
2018-05-04T10:09:39.837Z,70.10
2018-05-04T10:12:06.052Z,70.00
2018-05-04T10:14:32.638Z,69.90
2018-05-04T10:16:58.662Z,69.40
2018-05-04T10:19:24.685Z,69.20
2018-05-04T10:21:50.693Z,68.80
2018-05-04T10:24:16.683Z,69.20
2018-05-04T10:26:42.698Z,68.70
2018-05-04T10:29:08.732Z,68.50
2018-05-04T10:31:34.793Z,68.10
2018-05-04T10:34:00.991Z,68.10
2018-05-04T10:36:27.809Z,67.90
2018-05-04T10:38:53.983Z,67.20
2018-05-04T10:41:20.530Z,67.10
2018-05-04T10:43:46.548Z,67.10
2018-05-04T10:46:13.676Z,67.00
2018-05-04T10:48:39.779Z,66.50
2018-05-04T10:51:05.809Z,66.60
2018-05-04T10:53:33.592Z,66.80
2018-05-04T10:55:59.614Z,65.90
2018-05-04T10:58:26.581Z,65.40
2018-05-04T11:00:52.673Z,64.40
2018-05-04T11:03:18.682Z,64.80
2018-05-04T11:19:57.578Z,65.00
2018-05-04T11:22:26.849Z,63.20
2018-05-04T11:24:52.868Z,63.40
2018-05-04T11:27:18.959Z,64.40
2018-05-04T11:29:44.920Z,64.60
2018-05-04T11:32:11.746Z,64.50
2018-05-04T11:34:37.708Z,64.60
2018-05-04T11:37:03.926Z,64.00
2018-05-04T11:39:29.983Z,64.50
2018-05-04T11:41:56.929Z,64.10
2018-05-04T11:44:23.093Z,64.50
2018-05-04T11:46:49.318Z,64.80
2018-05-04T11:49:17.717Z,64.40
2018-05-04T11:51:44.523Z,64.50
2018-05-04T11:54:10.980Z,64.00
2018-05-04T11:56:37.224Z,64.00
2018-05-04T11:59:03.243Z,63.50
2018-05-04T12:01:29.449Z,62.90
2018-05-04T12:03:56.150Z,61.60
2018-05-04T12:06:23.103Z,61.10
2018-05-04T12:08:49.197Z,60.50
2018-05-04T12:11:15.437Z,61.20
2018-05-04T12:13:41.450Z,60.00
2018-05-04T12:16:07.392Z,60.00
2018-05-04T12:18:33.426Z,59.50
2018-05-04T12:20:59.356Z,58.60
2018-05-04T12:23:25.352Z,58.40
2018-05-04T12:25:52.131Z,57.90
2018-05-04T12:28:18.173Z,57.30
2018-05-04T12:30:44.285Z,57.40
2018-05-04T12:33:10.246Z,58.00
2018-05-04T12:35:36.261Z,57.90
2018-05-04T12:38:04.153Z,57.10
2018-05-04T12:40:30.210Z,57.40
2018-05-04T12:59:37.557Z,55.10
2018-05-04T13:02:04.048Z,54.60
2018-05-04T13:04:30.087Z,54.90
2018-05-04T13:09:40.965Z,53.50
2018-05-04T13:12:07.070Z,53.70
2018-05-04T13:14:33.325Z,53.40
2018-05-04T13:17:01.923Z,53.60
2018-05-04T13:19:27.945Z,53.40
2018-05-04T13:21:54.099Z,53.80
2018-05-04T13:24:23.595Z,53.00
2018-05-04T13:26:49.631Z,51.90
2018-05-04T13:29:17.167Z,51.60
2018-05-04T13:31:43.229Z,51.50
2018-05-04T13:34:09.204Z,51.20
2018-05-04T13:36:35.332Z,51.10
2018-05-04T13:39:01.389Z,51.10
2018-05-04T13:41:27.553Z,51.30
2018-05-04T13:43:53.603Z,50.80
2018-05-04T13:46:19.607Z,50.20
2018-05-04T13:48:45.728Z,50.90
2018-05-04T13:51:11.848Z,51.20
2018-05-04T13:53:37.848Z,50.70
2018-05-04T13:56:04.613Z,50.20
2018-05-04T13:58:30.658Z,50.20
2018-05-04T14:00:56.685Z,50.10
2018-05-04T14:03:22.741Z,49.50
2018-05-04T14:05:48.771Z,49.50
2018-05-04T14:08:14.733Z,49.40
2018-05-04T14:10:41.470Z,48.30
2018-05-04T14:13:08.229Z,48.50
2018-05-04T14:15:34.291Z,48.50
2018-05-04T14:18:00.383Z,48.50
2018-05-04T14:20:26.457Z,48.00
2018-05-04T14:22:52.569Z,47.60
2018-05-04T14:25:19.072Z,47.70
2018-05-04T14:27:45.849Z,47.90
2018-05-04T14:30:12.169Z,47.80
2018-05-04T14:32:52.613Z,48.50
2018-05-04T14:35:20.070Z,48.60
2018-05-04T14:37:46.292Z,48.00
2018-05-04T14:40:12.384Z,47.10
2018-05-04T14:42:38.529Z,46.90
2018-05-04T14:45:04.529Z,46.80
2018-05-04T14:47:30.665Z,46.90
2018-05-04T14:49:56.700Z,47.00
2018-05-04T14:52:22.746Z,47.50
2018-05-04T14:54:48.799Z,47.50
2018-05-04T14:57:21.802Z,47.00
2018-05-04T14:59:48.637Z,47.40
2018-05-04T15:02:29.961Z,47.30
2018-05-04T15:04:56.240Z,47.30
2018-05-04T15:07:28.603Z,47.40
2018-05-04T15:10:06.451Z,47.80
2018-05-04T15:12:32.434Z,47.70
2018-05-04T15:14:58.455Z,47.70
2018-05-04T15:17:24.468Z,47.70
2018-05-04T15:19:51.172Z,47.80
2018-05-04T15:22:18.024Z,47.70
2018-05-04T15:24:44.083Z,47.60
2018-05-04T15:27:10.101Z,48.00
2018-05-04T15:29:36.092Z,47.70
2018-05-04T15:32:02.114Z,47.60
2018-05-04T15:34:28.183Z,47.10
2018-05-04T15:36:54.886Z,47.30
2018-05-04T15:39:23.215Z,47.60
2018-05-04T15:41:49.434Z,47.20
2018-05-04T15:44:16.269Z,47.30
2018-05-04T15:46:42.399Z,47.30
2018-05-04T15:49:15.511Z,47.40
2018-05-04T15:51:47.616Z,47.60
2018-05-04T15:54:13.663Z,47.50
2018-05-04T15:56:40.994Z,47.40
2018-05-04T15:59:07.050Z,47.40
2018-05-04T16:01:33.634Z,47.40
2018-05-04T16:04:00.487Z,47.70
2018-05-04T16:06:26.633Z,48.10
2018-05-04T16:08:52.752Z,47.50
2018-05-04T16:11:19.651Z,47.00
2018-05-04T16:13:45.917Z,46.90
2018-05-04T16:16:11.836Z,46.60
2018-05-04T16:18:37.872Z,45.90
2018-05-04T16:21:03.858Z,46.80
2018-05-04T16:23:29.867Z,46.70
2018-05-04T16:25:56.041Z,47.50
2018-05-04T16:28:22.107Z,48.20
2018-05-04T16:30:48.876Z,47.90
2018-05-04T16:33:14.896Z,47.80
2018-05-04T16:35:40.994Z,48.50
2018-05-04T16:38:07.021Z,48.20
2018-05-04T16:40:33.040Z,47.60
2018-05-04T16:42:58.965Z,47.30
2018-05-04T16:45:25.520Z,47.00
2018-05-04T16:47:57.654Z,47.70
2018-05-04T16:50:24.305Z,48.50
2018-05-04T16:52:52.396Z,48.10
2018-05-04T16:55:18.511Z,48.00
2018-05-04T16:57:45.505Z,47.80
2018-05-04T17:00:12.263Z,47.70
2018-05-04T17:02:38.515Z,47.60
2018-05-04T17:05:04.589Z,47.20
2018-05-04T17:07:30.573Z,47.60
2018-05-04T17:09:56.628Z,48.00
2018-05-04T17:12:23.379Z,48.10
2018-05-04T17:14:49.594Z,48.10
2018-05-04T17:17:15.741Z,47.70
2018-05-04T17:19:41.793Z,47.90
2018-05-04T17:22:08.179Z,48.20
2018-05-04T17:24:34.146Z,49.20
2018-05-04T17:27:00.236Z,49.10
2018-05-04T17:29:27.023Z,49.20
2018-05-04T17:31:53.055Z,49.20
2018-05-04T17:34:19.013Z,49.00
2018-05-04T17:36:46.122Z,48.90
2018-05-04T17:39:12.176Z,48.80
2018-05-04T17:41:38.314Z,49.20
2018-05-04T17:44:05.139Z,49.20
2018-05-04T17:46:31.175Z,49.20
2018-05-04T17:48:57.304Z,49.30
2018-05-04T17:51:24.363Z,49.20
2018-05-04T17:53:50.491Z,49.30
2018-05-04T17:56:17.191Z,49.40
2018-05-04T17:58:44.093Z,49.60
2018-05-04T18:01:10.052Z,49.20
2018-05-04T18:03:37.659Z,49.40
2018-05-04T18:06:04.345Z,49.40
2018-05-04T18:08:31.254Z,49.70
2018-05-04T18:10:57.213Z,50.00
2018-05-04T18:13:23.227Z,49.80
2018-05-04T18:15:49.314Z,49.40
2018-05-04T18:18:15.319Z,49.70
2018-05-04T18:20:41.499Z,50.60
2018-05-04T18:23:07.500Z,50.70
2018-05-04T18:25:33.561Z,51.10
2018-05-04T18:27:59.616Z,51.80
2018-05-04T18:30:25.760Z,52.50
2018-05-04T18:32:51.737Z,53.10
2018-05-04T18:35:24.679Z,53.80
2018-05-04T18:37:51.440Z,54.80
2018-05-04T18:40:18.211Z,54.40
2018-05-04T18:42:44.231Z,54.40
2018-05-04T18:45:11.097Z,54.90
2018-05-04T18:47:37.185Z,55.70
2018-05-04T18:50:03.211Z,55.40
2018-05-04T18:52:30.092Z,56.20
2018-05-04T18:54:56.109Z,55.70
2018-05-04T18:57:23.285Z,55.90
2018-05-04T18:59:49.361Z,55.80
2018-05-04T19:02:22.418Z,55.90
2018-05-04T19:04:48.623Z,56.10
2018-05-04T19:07:15.472Z,56.60
2018-05-04T19:09:42.355Z,56.90
2018-05-04T19:12:08.405Z,56.80
2018-05-04T19:14:34.418Z,57.20
2018-05-04T19:17:01.460Z,57.20
2018-05-04T19:19:28.156Z,57.60
2018-05-04T19:21:54.154Z,57.90
2018-05-04T19:24:20.934Z,58.00
2018-05-04T19:26:46.921Z,57.90
2018-05-04T19:29:12.916Z,57.90
2018-05-04T19:31:38.870Z,58.20
2018-05-04T19:34:04.899Z,58.50
2018-05-04T19:36:30.842Z,58.50
2018-05-04T19:38:56.796Z,58.90
2018-05-04T19:41:22.812Z,59.70
2018-05-04T19:43:48.821Z,59.40
2018-05-04T19:46:14.784Z,59.60
2018-05-04T19:48:41.520Z,59.70
2018-05-04T19:51:07.500Z,59.60
2018-05-04T19:53:33.546Z,59.90
2018-05-04T19:55:59.669Z,59.80
2018-05-04T19:58:27.431Z,59.80
2018-05-04T20:00:53.451Z,59.80
2018-05-04T20:03:19.441Z,60.10
2018-05-04T20:05:45.553Z,60.30
2018-05-04T20:08:11.546Z,59.90
2018-05-04T20:10:37.545Z,59.90
2018-05-04T20:13:04.395Z,59.90
2018-05-04T20:15:30.381Z,59.90
2018-05-04T20:17:56.418Z,59.90
2018-05-04T20:20:22.501Z,59.80
2018-05-04T20:22:48.646Z,59.60
2018-05-04T20:25:14.832Z,59.60
2018-05-04T20:27:40.989Z,59.80
2018-05-04T20:30:07.118Z,59.80
2018-05-04T20:32:33.231Z,59.90
2018-05-04T20:34:59.275Z,60.40
2018-05-04T20:37:26.991Z,60.50
2018-05-04T20:39:53.029Z,60.40
2018-05-04T20:42:19.063Z,60.50
2018-05-04T20:44:45.822Z,60.60
2018-05-04T20:47:11.820Z,60.40
2018-05-04T20:49:37.945Z,60.40
2018-05-04T20:52:04.144Z,60.60
2018-05-04T20:54:30.217Z,60.50
2018-05-04T20:56:57.910Z,60.60
2018-05-04T20:59:24.086Z,60.40
2018-05-04T21:01:51.030Z,60.50
2018-05-04T21:04:17.983Z,60.40
2018-05-04T21:06:44.889Z,60.70
2018-05-04T21:09:11.779Z,60.90
2018-05-04T21:11:38.602Z,60.90
2018-05-04T21:14:04.743Z,60.80
2018-05-04T21:16:33.169Z,61.20
2018-05-04T21:18:59.255Z,61.30
2018-05-04T21:21:26.137Z,61.60
2018-05-04T21:23:52.435Z,61.50
2018-05-04T21:26:19.083Z,61.80
2018-05-04T21:28:45.141Z,62.30
2018-05-04T21:31:11.289Z,62.30
2018-05-04T21:33:37.332Z,62.60
2018-05-04T21:36:03.298Z,62.60
2018-05-04T21:38:29.297Z,62.80
2018-05-04T21:40:55.247Z,63.10
2018-05-04T21:43:21.304Z,63.20
2018-05-04T21:45:48.034Z,64.00
2018-05-04T21:48:14.051Z,63.80
2018-05-04T21:50:40.183Z,64.40
2018-05-04T21:53:06.796Z,64.80
2018-05-04T21:55:32.808Z,65.10
2018-05-04T21:57:58.940Z,65.40
2018-05-04T22:00:24.991Z,66.00
2018-05-04T22:02:51.049Z,66.20
2018-05-04T22:05:18.907Z,66.10
2018-05-04T22:07:44.924Z,66.00
2018-05-04T22:10:11.214Z,66.20
2018-05-04T22:12:38.216Z,65.90
2018-05-04T22:15:04.479Z,65.90
2018-05-04T22:17:31.321Z,66.00
2018-05-04T22:19:58.129Z,67.00
2018-05-04T22:22:25.803Z,66.50
2018-05-04T22:24:52.299Z,66.60
2018-05-04T22:27:19.106Z,66.20
2018-05-04T22:29:45.149Z,66.20
2018-05-04T22:32:12.192Z,66.30
2018-05-04T22:34:38.918Z,66.50
2018-05-04T22:37:05.910Z,67.10
2018-05-04T22:39:32.094Z,67.50
2018-05-04T22:41:59.166Z,67.10
2018-05-04T22:44:26.572Z,70.00
2018-05-04T22:46:53.347Z,69.20
2018-05-04T22:49:20.419Z,69.10
2018-05-04T22:51:47.180Z,70.00
2018-05-04T22:54:13.457Z,69.70
2018-05-04T22:56:39.608Z,69.70
2018-05-04T22:59:05.676Z,69.90
2018-05-04T23:01:31.769Z,70.10
2018-05-04T23:03:57.773Z,70.30
2018-05-04T23:06:23.797Z,70.10
2018-05-04T23:08:49.911Z,70.20
2018-05-04T23:11:15.952Z,70.40
2018-05-04T23:13:42.061Z,70.30
2018-05-04T23:16:08.139Z,70.50
2018-05-04T23:18:34.874Z,71.20
2018-05-04T23:21:00.904Z,71.00
2018-05-04T23:23:26.948Z,71.70
2018-05-04T23:25:53.132Z,71.70
2018-05-04T23:28:19.140Z,72.10
2018-05-04T23:30:45.148Z,72.10
2018-05-04T23:33:11.177Z,72.40
2018-05-04T23:35:37.235Z,72.50
2018-05-04T23:38:03.297Z,72.80
2018-05-04T23:40:29.343Z,72.50
2018-05-04T23:42:56.401Z,73.30
2018-05-04T23:45:22.428Z,73.20
2018-05-04T23:47:49.286Z,72.60
2018-05-04T23:50:16.062Z,72.30
2018-05-04T23:52:42.135Z,72.30
2018-05-04T23:55:08.211Z,72.00
2018-05-04T23:57:34.329Z,71.90
